createdAt,value
2022-07-31T00:00:13.147Z,67.90
2022-07-31T00:01:15.862Z,67.97
2022-07-31T00:02:18.738Z,68.00
2022-07-31T00:03:21.487Z,68.13
2022-07-31T00:04:24.461Z,68.17
2022-07-31T00:05:27.081Z,68.17
2022-07-31T00:06:29.854Z,68.18
2022-07-31T00:07:32.626Z,68.19
2022-07-31T00:08:35.316Z,68.13
2022-07-31T00:09:53.479Z,68.07
2022-07-31T00:10:42.725Z,68.12
2022-07-31T00:11:45.592Z,68.09
2022-07-31T00:12:48.300Z,68.09
2022-07-31T00:13:57.673Z,67.95
2022-07-31T00:14:55.569Z,67.98
2022-07-31T00:15:58.286Z,67.96
2022-07-31T00:17:01.415Z,68.04
2022-07-31T00:18:04.494Z,68.10
2022-07-31T00:19:07.703Z,68.16
2022-07-31T00:20:13.528Z,68.05
2022-07-31T00:21:16.462Z,68.13
2022-07-31T00:22:19.152Z,68.08
2022-07-31T00:23:21.838Z,68.01
2022-07-31T00:24:24.735Z,68.15
2022-07-31T00:25:27.457Z,68.21
2022-07-31T00:26:30.639Z,68.18
2022-07-31T00:27:33.407Z,68.53
2022-07-31T00:28:36.772Z,68.38
2022-07-31T00:29:39.481Z,68.20
2022-07-31T00:30:42.262Z,68.12
2022-07-31T00:31:44.939Z,68.14
2022-07-31T00:32:48.908Z,68.29
2022-07-31T00:33:52.136Z,68.33
2022-07-31T00:34:54.818Z,68.21
2022-07-31T00:35:57.409Z,68.26
2022-07-31T00:38:27.294Z,68.05
2022-07-31T00:39:15.464Z,68.05
2022-07-31T00:40:19.173Z,68.11
2022-07-31T00:41:21.979Z,68.06
2022-07-31T00:42:25.095Z,68.02
2022-07-31T00:43:30.892Z,67.99
2022-07-31T00:44:32.361Z,68.05
2022-07-31T00:45:35.053Z,68.15
2022-07-31T00:46:40.607Z,68.57
2022-07-31T00:47:43.372Z,68.27
2022-07-31T00:48:46.206Z,68.17
2022-07-31T00:49:49.018Z,68.37
2022-07-31T00:50:52.033Z,68.35
2022-07-31T00:51:54.756Z,68.23
2022-07-31T00:52:57.533Z,68.18
2022-07-31T00:54:00.122Z,68.25
2022-07-31T00:55:03.043Z,68.31
2022-07-31T00:56:05.842Z,68.09
2022-07-31T00:57:08.556Z,67.96
2022-07-31T00:58:11.261Z,67.94
2022-07-31T00:59:13.850Z,68.08
2022-07-31T01:00:18.441Z,67.80
2022-07-31T01:01:21.611Z,67.78
2022-07-31T01:02:24.432Z,67.52
2022-07-31T01:03:27.224Z,67.45
2022-07-31T01:04:31.321Z,67.42
2022-07-31T01:05:34.248Z,67.70
2022-07-31T01:06:42.335Z,67.60
2022-07-31T01:07:41.744Z,67.34
2022-07-31T01:08:44.330Z,66.92
2022-07-31T01:09:46.918Z,66.66
2022-07-31T01:11:04.118Z,66.39
2022-07-31T01:12:13.161Z,66.50
2022-07-31T01:14:39.159Z,66.00
2022-07-31T01:15:41.888Z,65.85
2022-07-31T01:16:46.373Z,65.85
2022-07-31T01:17:49.084Z,65.71
2022-07-31T01:18:51.760Z,65.55
2022-07-31T01:19:54.456Z,65.62
2022-07-31T01:20:57.729Z,65.60
2022-07-31T01:22:38.130Z,65.42
2022-07-31T01:23:57.091Z,65.34
2022-07-31T01:25:29.646Z,65.18
2022-07-31T01:26:39.366Z,64.89
2022-07-31T01:27:58.121Z,64.74
2022-07-31T01:29:07.547Z,64.66
2022-07-31T01:30:10.882Z,64.67
2022-07-31T01:36:25.231Z,64.33
2022-07-31T01:38:45.661Z,64.51
2022-07-31T01:39:54.063Z,64.49
2022-07-31T01:40:58.269Z,64.68
2022-07-31T01:42:03.175Z,64.94
2022-07-31T01:43:08.543Z,64.88
2022-07-31T01:44:13.769Z,64.80
2022-07-31T01:45:15.849Z,64.86
2022-07-31T01:46:19.469Z,64.95
2022-07-31T01:47:22.357Z,64.99
2022-07-31T01:48:25.038Z,65.11
2022-07-31T01:49:27.762Z,65.24
2022-07-31T01:50:43.616Z,65.26
2022-07-31T01:52:47.909Z,65.55
2022-07-31T01:53:50.517Z,65.61
2022-07-31T01:54:53.690Z,65.79
2022-07-31T01:56:03.714Z,65.65
2022-07-31T01:57:02.658Z,65.68
2022-07-31T01:58:05.370Z,65.65
2022-07-31T01:59:19.983Z,65.68
2022-07-31T02:00:33.626Z,65.70
2022-07-31T02:01:18.977Z,65.63
2022-07-31T02:02:23.574Z,65.66
2022-07-31T02:03:44.102Z,65.68
2022-07-31T02:04:31.586Z,65.67
2022-07-31T02:05:34.507Z,65.77
2022-07-31T02:06:37.334Z,65.55
2022-07-31T02:07:40.518Z,65.45
2022-07-31T02:08:46.762Z,65.37
2022-07-31T02:09:58.704Z,65.17
2022-07-31T02:10:54.151Z,64.99
2022-07-31T02:11:56.933Z,64.97
2022-07-31T02:13:00.113Z,65.13
2022-07-31T02:14:02.906Z,65.07
2022-07-31T02:15:06.740Z,65.06
2022-07-31T02:16:12.368Z,65.01
2022-07-31T02:17:15.064Z,65.09
2022-07-31T02:18:19.958Z,65.05
2022-07-31T02:19:23.395Z,65.24
2022-07-31T02:21:37.325Z,65.27
2022-07-31T02:23:50.533Z,65.19
2022-07-31T02:24:53.158Z,65.20
2022-07-31T02:25:55.717Z,65.23
2022-07-31T02:26:59.415Z,65.22
2022-07-31T02:28:04.793Z,65.38
2022-07-31T02:29:07.931Z,65.14
2022-07-31T02:30:13.545Z,65.05
2022-07-31T02:31:16.553Z,65.26
2022-07-31T02:32:19.318Z,65.03
2022-07-31T02:33:23.992Z,64.84
2022-07-31T02:34:29.216Z,64.86
2022-07-31T02:35:31.241Z,64.95
2022-07-31T02:36:34.240Z,64.94
2022-07-31T02:37:37.195Z,64.91
2022-07-31T02:38:39.990Z,64.75
2022-07-31T02:40:57.715Z,64.46
2022-07-31T02:42:00.728Z,64.48
2022-07-31T02:43:04.097Z,64.61
2022-07-31T02:44:11.001Z,64.51
2022-07-31T02:45:13.605Z,64.53
2022-07-31T02:46:18.085Z,64.55
2022-07-31T02:47:20.672Z,64.70
2022-07-31T02:48:24.171Z,64.84
2022-07-31T02:49:26.927Z,64.83
2022-07-31T02:50:31.384Z,64.74
2022-07-31T02:51:42.869Z,64.50
2022-07-31T02:52:38.678Z,64.56
2022-07-31T02:53:41.345Z,64.59
2022-07-31T02:54:44.076Z,64.09
2022-07-31T02:55:46.790Z,64.01
2022-07-31T02:56:50.258Z,63.98
2022-07-31T02:57:52.939Z,64.02
2022-07-31T02:58:55.617Z,64.03
2022-07-31T02:59:58.223Z,63.98
2022-07-31T03:01:02.745Z,63.79
2022-07-31T03:02:06.296Z,63.78
2022-07-31T03:03:11.141Z,63.65
2022-07-31T03:04:13.835Z,63.84
2022-07-31T03:05:16.615Z,63.55
2022-07-31T03:06:20.222Z,63.58
2022-07-31T03:07:22.891Z,63.69
2022-07-31T03:09:43.251Z,64.00
2022-07-31T03:10:46.070Z,63.93
2022-07-31T03:11:48.639Z,63.72
2022-07-31T03:12:52.114Z,63.80
2022-07-31T03:13:55.416Z,63.60
2022-07-31T03:14:58.133Z,63.55
2022-07-31T03:17:11.997Z,63.28
2022-07-31T03:18:14.604Z,63.40
2022-07-31T03:19:17.720Z,63.58
2022-07-31T03:20:21.126Z,63.56
2022-07-31T03:21:24.110Z,63.35
2022-07-31T03:22:28.197Z,63.23
2022-07-31T03:23:30.879Z,63.58
2022-07-31T03:24:33.569Z,63.35
2022-07-31T03:25:36.334Z,63.28
2022-07-31T03:26:39.601Z,63.30
2022-07-31T03:27:42.274Z,63.27
2022-07-31T03:28:46.897Z,63.10
2022-07-31T03:29:49.559Z,63.10
2022-07-31T03:30:56.062Z,62.93
2022-07-31T03:31:57.534Z,62.99
2022-07-31T03:33:00.101Z,63.08
2022-07-31T03:34:02.776Z,63.00
2022-07-31T03:35:06.559Z,62.91
2022-07-31T03:36:09.590Z,62.89
2022-07-31T03:37:12.457Z,62.67
2022-07-31T03:38:40.688Z,62.83
2022-07-31T03:39:19.774Z,62.83
2022-07-31T03:40:24.421Z,62.85
2022-07-31T03:42:37.618Z,62.79
2022-07-31T03:43:44.007Z,62.43
2022-07-31T03:45:55.866Z,62.23
2022-07-31T03:46:58.966Z,62.35
2022-07-31T03:48:01.861Z,62.50
2022-07-31T03:49:04.802Z,62.47
2022-07-31T03:50:08.575Z,62.37
2022-07-31T03:51:11.162Z,62.02
2022-07-31T03:52:14.148Z,61.84
2022-07-31T03:53:17.453Z,61.70
2022-07-31T03:54:20.118Z,61.51
2022-07-31T03:55:23.198Z,61.17
2022-07-31T03:56:26.174Z,61.47
2022-07-31T03:57:31.150Z,61.04
2022-07-31T03:58:33.290Z,61.13
2022-07-31T03:59:38.580Z,60.99
2022-07-31T04:00:41.045Z,60.78
2022-07-31T04:01:57.704Z,60.69
2022-07-31T04:02:50.431Z,60.23
2022-07-31T04:05:10.179Z,60.11
2022-07-31T04:06:13.886Z,59.57
2022-07-31T04:07:16.572Z,59.52
2022-07-31T04:08:19.166Z,59.70
2022-07-31T04:09:21.859Z,59.78
2022-07-31T04:10:25.563Z,59.85
2022-07-31T04:11:28.242Z,60.02
2022-07-31T04:12:30.941Z,60.16
2022-07-31T04:13:33.510Z,59.78
2022-07-31T04:14:36.197Z,59.84
2022-07-31T04:15:38.860Z,60.32
2022-07-31T04:16:41.648Z,60.57
2022-07-31T04:17:44.410Z,59.97
2022-07-31T04:18:50.842Z,59.54
2022-07-31T04:19:51.702Z,59.38
2022-07-31T04:20:54.478Z,59.71
2022-07-31T04:21:58.035Z,59.71
2022-07-31T04:23:00.841Z,59.65
2022-07-31T04:24:04.416Z,59.12
2022-07-31T04:25:08.472Z,58.69
2022-07-31T04:26:12.693Z,58.25
2022-07-31T04:27:17.549Z,58.22
2022-07-31T04:28:20.244Z,58.34
2022-07-31T04:29:23.551Z,57.85
2022-07-31T04:30:28.492Z,58.03
2022-07-31T04:31:31.280Z,58.11
2022-07-31T04:32:36.789Z,57.89
2022-07-31T04:33:46.529Z,58.08
2022-07-31T04:34:44.022Z,58.00
2022-07-31T04:35:46.727Z,57.85
2022-07-31T04:36:49.503Z,57.52
2022-07-31T04:37:52.373Z,57.76
2022-07-31T04:38:54.942Z,57.27
2022-07-31T04:39:57.617Z,56.90
2022-07-31T04:41:00.520Z,57.29
2022-07-31T04:42:04.183Z,57.56
2022-07-31T04:43:07.258Z,57.81
2022-07-31T04:44:10.262Z,57.87
2022-07-31T04:45:12.842Z,57.99
2022-07-31T04:46:17.774Z,57.80
2022-07-31T04:47:20.791Z,57.58
2022-07-31T04:48:23.462Z,57.66
2022-07-31T04:49:26.173Z,57.65
2022-07-31T04:50:29.550Z,57.30
2022-07-31T04:51:32.267Z,57.69
2022-07-31T04:52:35.056Z,57.55
2022-07-31T04:53:38.390Z,57.82
2022-07-31T04:54:41.457Z,57.60
2022-07-31T04:55:44.135Z,57.96
2022-07-31T04:56:47.345Z,57.41
2022-07-31T04:57:50.063Z,57.56
2022-07-31T04:58:52.673Z,57.52
2022-07-31T04:59:59.241Z,57.61
2022-07-31T05:01:01.560Z,57.86
2022-07-31T05:02:04.522Z,57.84
2022-07-31T05:03:07.599Z,57.73
2022-07-31T05:04:10.422Z,57.78
2022-07-31T05:05:13.101Z,57.61
2022-07-31T05:06:16.292Z,57.16
2022-07-31T05:07:18.970Z,56.48
2022-07-31T05:08:21.658Z,56.26
2022-07-31T05:09:25.290Z,56.40
2022-07-31T05:10:30.411Z,56.44
2022-07-31T05:11:33.678Z,56.69
2022-07-31T05:12:36.356Z,56.14
2022-07-31T05:13:39.051Z,55.31
2022-07-31T05:14:41.763Z,55.37
2022-07-31T05:15:44.448Z,55.07
2022-07-31T05:16:47.405Z,55.09
2022-07-31T05:17:50.080Z,55.27
2022-07-31T05:18:52.760Z,54.77
2022-07-31T05:19:55.421Z,53.99
2022-07-31T05:20:58.208Z,53.69
2022-07-31T05:22:02.538Z,53.49
2022-07-31T05:23:06.733Z,53.18
2022-07-31T05:24:09.694Z,53.00
2022-07-31T05:25:12.279Z,53.51
2022-07-31T05:26:16.469Z,53.40
2022-07-31T05:27:19.171Z,52.53
2022-07-31T05:28:27.135Z,51.55
2022-07-31T05:29:26.497Z,52.08
2022-07-31T05:30:30.795Z,51.90
2022-07-31T05:31:33.752Z,51.90
2022-07-31T05:32:36.423Z,52.17
2022-07-31T05:33:39.193Z,52.51
2022-07-31T05:34:41.782Z,52.26
2022-07-31T05:35:44.593Z,51.62
2022-07-31T05:37:58.399Z,51.00
2022-07-31T05:39:01.109Z,51.46
2022-07-31T05:40:05.305Z,51.50
2022-07-31T05:41:08.314Z,51.03
2022-07-31T05:42:11.005Z,50.86
2022-07-31T05:43:13.802Z,51.15
2022-07-31T05:44:16.434Z,51.14
2022-07-31T05:45:19.246Z,50.88
2022-07-31T05:46:23.127Z,50.75
2022-07-31T05:47:25.925Z,50.37
2022-07-31T05:48:30.645Z,50.40
2022-07-31T05:49:33.484Z,50.24
2022-07-31T05:50:36.423Z,50.36
2022-07-31T05:51:44.119Z,50.48
2022-07-31T05:52:47.163Z,49.65
2022-07-31T05:53:49.860Z,49.67
2022-07-31T05:55:37.547Z,48.73
2022-07-31T05:56:40.461Z,48.66
2022-07-31T05:57:43.149Z,49.26
2022-07-31T05:58:48.336Z,49.17
2022-07-31T05:59:50.352Z,48.98
2022-07-31T06:00:53.424Z,49.13
2022-07-31T06:01:56.201Z,49.58
2022-07-31T06:02:59.087Z,49.10
2022-07-31T06:04:01.775Z,48.93
2022-07-31T06:05:05.198Z,48.94
2022-07-31T06:06:08.202Z,49.20
2022-07-31T06:07:10.887Z,48.13
2022-07-31T06:08:14.795Z,48.46
2022-07-31T06:09:17.393Z,48.63
2022-07-31T06:10:21.989Z,48.39
2022-07-31T06:11:24.558Z,48.03
2022-07-31T06:12:27.233Z,47.70
2022-07-31T06:13:29.970Z,47.44
2022-07-31T06:14:32.754Z,46.79
2022-07-31T06:15:36.705Z,47.55
2022-07-31T06:16:39.978Z,47.84
2022-07-31T06:17:43.846Z,47.09
2022-07-31T06:18:47.266Z,47.70
2022-07-31T06:19:49.835Z,46.42
2022-07-31T06:20:52.703Z,46.71
2022-07-31T06:21:55.492Z,46.56
2022-07-31T06:22:58.682Z,46.32
2022-07-31T06:24:02.284Z,46.37
2022-07-31T06:25:06.605Z,46.41
2022-07-31T06:26:09.915Z,46.55
2022-07-31T06:27:29.676Z,46.49
2022-07-31T06:28:17.204Z,46.54
2022-07-31T06:29:20.274Z,46.77
2022-07-31T06:30:25.473Z,46.56
2022-07-31T06:31:28.165Z,46.71
2022-07-31T06:32:31.733Z,46.40
2022-07-31T06:33:37.806Z,45.84
2022-07-31T06:34:39.138Z,45.67
2022-07-31T06:35:41.918Z,46.25
2022-07-31T06:36:44.814Z,46.42
2022-07-31T06:37:47.412Z,45.62
2022-07-31T06:38:50.067Z,45.92
2022-07-31T06:39:55.972Z,45.93
2022-07-31T06:40:57.982Z,45.92
2022-07-31T06:42:01.116Z,45.99
2022-07-31T06:43:06.889Z,45.04
2022-07-31T06:44:09.786Z,44.75
2022-07-31T06:45:18.396Z,44.42
2022-07-31T06:46:19.161Z,44.96
2022-07-31T06:47:23.562Z,45.66
2022-07-31T06:48:26.380Z,45.38
2022-07-31T06:49:31.267Z,45.64
2022-07-31T06:50:35.352Z,45.73
2022-07-31T06:51:38.238Z,45.13
2022-07-31T06:52:40.837Z,44.64
2022-07-31T06:53:43.540Z,44.74
2022-07-31T06:54:46.439Z,44.91
2022-07-31T06:55:49.021Z,44.43
2022-07-31T06:56:51.839Z,44.23
2022-07-31T06:57:54.944Z,44.65
2022-07-31T06:58:57.916Z,44.44
2022-07-31T07:00:03.229Z,44.44
2022-07-31T07:02:15.945Z,45.07
2022-07-31T07:03:18.669Z,45.29
2022-07-31T07:04:21.336Z,45.48
2022-07-31T07:05:25.943Z,45.44
2022-07-31T07:06:28.922Z,45.00
2022-07-31T07:07:33.391Z,45.57
2022-07-31T07:08:36.178Z,45.72
2022-07-31T07:09:39.002Z,45.05
2022-07-31T07:10:42.161Z,45.13
2022-07-31T07:11:44.746Z,45.52
2022-07-31T07:12:47.492Z,44.99
2022-07-31T07:13:50.369Z,45.16
2022-07-31T07:14:53.045Z,45.19
2022-07-31T07:15:56.143Z,45.33
2022-07-31T07:17:04.033Z,44.92
2022-07-31T07:19:17.274Z,44.08
2022-07-31T07:21:31.630Z,43.90
2022-07-31T07:23:55.444Z,44.52
2022-07-31T07:24:59.052Z,43.96
2022-07-31T07:26:01.761Z,43.48
2022-07-31T07:27:04.658Z,43.58
2022-07-31T07:28:10.036Z,43.65
2022-07-31T07:29:12.355Z,43.22
2022-07-31T07:30:16.057Z,42.83
2022-07-31T07:31:18.643Z,43.69
2022-07-31T07:32:21.305Z,43.54
2022-07-31T07:33:41.682Z,43.44
2022-07-31T07:34:28.612Z,42.89
2022-07-31T07:35:34.123Z,42.75
2022-07-31T07:36:36.401Z,43.02
2022-07-31T07:37:39.893Z,42.76
2022-07-31T07:38:42.558Z,43.18
2022-07-31T07:39:46.974Z,43.40
2022-07-31T07:40:50.470Z,42.67
2022-07-31T07:41:53.304Z,42.67
2022-07-31T07:43:01.245Z,42.05
2022-07-31T07:44:01.134Z,42.11
2022-07-31T07:45:06.735Z,42.22
2022-07-31T07:46:09.520Z,41.68
2022-07-31T07:47:12.211Z,42.28
2022-07-31T07:48:15.028Z,42.97
2022-07-31T07:49:17.748Z,42.06
2022-07-31T07:50:21.546Z,42.21
2022-07-31T07:51:24.195Z,40.82
2022-07-31T07:52:28.886Z,41.50
2022-07-31T07:53:31.384Z,41.67
2022-07-31T07:54:34.076Z,41.90
2022-07-31T07:55:37.371Z,41.51
2022-07-31T07:56:40.740Z,41.39
2022-07-31T07:57:44.038Z,41.87
2022-07-31T07:58:46.717Z,41.92
2022-07-31T07:59:49.394Z,42.30
2022-07-31T08:00:52.440Z,41.27
2022-07-31T08:01:55.570Z,41.42
2022-07-31T08:03:47.724Z,41.37
2022-07-31T08:04:02.894Z,41.25
2022-07-31T08:05:06.591Z,41.05
2022-07-31T08:06:10.055Z,41.36
2022-07-31T08:07:12.885Z,40.84
2022-07-31T08:08:15.621Z,40.10
2022-07-31T08:09:18.189Z,40.21
2022-07-31T08:11:33.236Z,40.08
2022-07-31T08:12:36.220Z,39.52
2022-07-31T08:13:38.904Z,40.32
2022-07-31T08:14:43.535Z,40.05
2022-07-31T08:15:46.226Z,39.42
2022-07-31T08:16:49.013Z,39.45
2022-07-31T08:17:51.777Z,38.95
2022-07-31T08:18:54.478Z,37.96
2022-07-31T08:19:57.139Z,37.46
2022-07-31T08:20:59.957Z,38.23
2022-07-31T08:22:03.145Z,38.47
2022-07-31T08:23:06.042Z,37.92
2022-07-31T08:24:08.722Z,38.02
2022-07-31T08:25:15.083Z,38.14
2022-07-31T08:26:16.452Z,37.67
2022-07-31T08:27:19.131Z,37.12
2022-07-31T08:28:24.925Z,37.11
2022-07-31T08:29:28.947Z,36.75
2022-07-31T08:30:33.710Z,36.21
2022-07-31T08:31:36.390Z,35.78
2022-07-31T08:32:38.979Z,35.47
2022-07-31T08:33:41.654Z,35.38
2022-07-31T08:34:44.446Z,36.38
2022-07-31T08:35:50.535Z,36.50
2022-07-31T08:36:51.920Z,36.03
2022-07-31T08:38:03.740Z,34.66
2022-07-31T08:38:59.266Z,35.55
2022-07-31T08:40:01.979Z,34.97
2022-07-31T08:41:04.911Z,34.57
2022-07-31T08:42:08.663Z,35.03
2022-07-31T08:44:00.396Z,34.95
2022-07-31T08:44:16.874Z,35.36
2022-07-31T08:45:19.454Z,35.74
2022-07-31T08:46:23.063Z,34.90
2022-07-31T08:47:25.746Z,35.06
2022-07-31T08:48:28.832Z,33.54
2022-07-31T08:49:31.577Z,32.89
2022-07-31T08:50:36.806Z,32.38
2022-07-31T08:51:50.902Z,32.57
2022-07-31T08:52:44.311Z,32.53
2022-07-31T08:53:46.926Z,33.38
2022-07-31T08:54:51.926Z,34.57
2022-07-31T08:57:06.112Z,33.93
2022-07-31T08:58:10.351Z,34.76
2022-07-31T08:59:12.956Z,33.13
2022-07-31T09:00:17.702Z,32.84
2022-07-31T09:01:20.505Z,31.86
2022-07-31T09:02:23.593Z,32.26
2022-07-31T09:03:26.427Z,33.19
2022-07-31T09:04:29.394Z,32.96
2022-07-31T09:05:41.977Z,32.54
2022-07-31T09:06:39.675Z,32.14
2022-07-31T09:07:42.943Z,32.03
2022-07-31T09:08:45.638Z,31.98
2022-07-31T09:09:52.283Z,31.88
2022-07-31T09:11:05.956Z,32.81
2022-07-31T09:12:08.987Z,33.07
2022-07-31T09:13:16.145Z,33.78
2022-07-31T09:15:38.865Z,32.70
2022-07-31T09:16:47.838Z,32.52
2022-07-31T09:17:53.671Z,32.81
2022-07-31T09:19:03.830Z,32.94
2022-07-31T09:20:12.635Z,33.38
2022-07-31T09:21:15.351Z,33.96
2022-07-31T09:22:21.898Z,34.04
2022-07-31T09:23:25.236Z,34.67
2022-07-31T09:24:29.431Z,33.34
2022-07-31T09:25:32.127Z,34.25
2022-07-31T09:26:37.108Z,34.63
2022-07-31T09:27:39.798Z,34.52
2022-07-31T09:28:46.361Z,34.76
2022-07-31T09:29:49.234Z,34.72
2022-07-31T09:30:56.697Z,33.09
2022-07-31T09:32:12.773Z,32.13
2022-07-31T09:33:16.342Z,32.53
2022-07-31T09:34:26.487Z,32.13
2022-07-31T09:35:31.114Z,33.40
2022-07-31T09:37:46.359Z,31.84
2022-07-31T09:38:49.056Z,32.60
2022-07-31T09:39:52.935Z,33.11
2022-07-31T09:40:57.781Z,33.22
2022-07-31T09:42:16.396Z,32.02
2022-07-31T09:43:18.062Z,32.30
2022-07-31T09:44:25.373Z,32.79
2022-07-31T09:45:26.364Z,32.96
2022-07-31T09:46:43.442Z,32.91
2022-07-31T09:47:46.377Z,33.36
2022-07-31T09:48:56.624Z,31.75
2022-07-31T09:51:12.035Z,31.19
2022-07-31T09:52:18.347Z,31.51
2022-07-31T09:53:21.047Z,32.45
2022-07-31T09:54:24.826Z,32.43
2022-07-31T09:55:27.539Z,32.08
2022-07-31T09:56:32.928Z,31.84
2022-07-31T09:57:35.551Z,32.15
2022-07-31T09:58:38.781Z,32.34
2022-07-31T09:59:41.454Z,32.52
2022-07-31T10:00:46.150Z,33.14
2022-07-31T10:01:49.345Z,33.14
2022-07-31T10:02:55.634Z,33.04
2022-07-31T10:03:59.674Z,32.72
2022-07-31T10:05:02.666Z,32.09
2022-07-31T10:06:06.412Z,32.01
2022-07-31T10:08:00.431Z,31.63
2022-07-31T10:09:04.008Z,31.71
2022-07-31T10:10:07.770Z,32.61
2022-07-31T10:11:16.467Z,31.82
2022-07-31T10:12:16.638Z,30.77
2022-07-31T10:13:19.735Z,31.02
2022-07-31T10:14:25.703Z,31.93
2022-07-31T10:15:28.470Z,31.67
2022-07-31T10:16:32.154Z,32.34
2022-07-31T10:17:36.439Z,32.03
2022-07-31T10:18:45.542Z,31.50
2022-07-31T10:19:48.271Z,31.16
2022-07-31T10:20:51.944Z,30.46
2022-07-31T10:21:56.703Z,30.50
2022-07-31T10:23:03.125Z,31.04
2022-07-31T10:24:06.106Z,30.07
2022-07-31T10:25:09.092Z,30.75
2022-07-31T10:26:13.415Z,31.16
2022-07-31T10:27:16.538Z,31.13
2022-07-31T10:28:19.506Z,30.71
2022-07-31T10:29:22.178Z,30.32
2022-07-31T10:30:28.026Z,30.73
2022-07-31T10:31:30.335Z,31.67
2022-07-31T10:32:33.127Z,31.87
2022-07-31T10:33:44.804Z,31.64
2022-07-31T10:34:40.299Z,30.74
2022-07-31T10:35:55.454Z,29.63
2022-07-31T10:37:00.517Z,30.84
2022-07-31T10:38:12.036Z,31.64
2022-07-31T10:39:37.074Z,32.18
2022-07-31T10:42:32.602Z,32.89
2022-07-31T10:43:47.663Z,32.98
2022-07-31T10:44:52.765Z,32.09
2022-07-31T10:45:55.474Z,30.90
2022-07-31T10:46:58.692Z,31.54
2022-07-31T10:48:01.368Z,31.68
2022-07-31T10:49:08.733Z,31.65
2022-07-31T10:50:13.642Z,31.72
2022-07-31T10:51:16.368Z,31.10
2022-07-31T10:52:32.223Z,30.86
2022-07-31T10:53:50.998Z,30.54
2022-07-31T10:54:41.772Z,31.13
2022-07-31T10:55:44.489Z,31.16
2022-07-31T10:56:47.281Z,31.11
2022-07-31T10:57:56.162Z,31.54
2022-07-31T11:00:13.986Z,32.73
2022-07-31T11:01:17.585Z,32.84
2022-07-31T11:03:42.396Z,32.95
2022-07-31T11:04:45.013Z,31.84
2022-07-31T11:06:01.500Z,31.94
2022-07-31T11:08:15.006Z,31.81
2022-07-31T11:09:24.573Z,32.45
2022-07-31T11:10:29.186Z,32.21
2022-07-31T11:11:32.966Z,32.86
2022-07-31T11:12:35.702Z,33.21
2022-07-31T11:13:51.425Z,32.53
2022-07-31T11:14:54.137Z,31.82
2022-07-31T11:16:06.051Z,31.63
2022-07-31T11:17:08.846Z,32.05
2022-07-31T11:18:24.903Z,31.97
2022-07-31T11:19:20.810Z,32.65
2022-07-31T11:20:25.899Z,31.88
2022-07-31T11:21:39.976Z,31.90
2022-07-31T11:22:40.992Z,30.80
2022-07-31T11:23:56.052Z,31.29
2022-07-31T11:24:54.647Z,31.80
2022-07-31T11:26:02.093Z,31.86
2022-07-31T11:27:05.385Z,32.21
2022-07-31T11:28:16.685Z,32.31
2022-07-31T11:30:01.157Z,32.54
2022-07-31T11:30:33.427Z,32.93
2022-07-31T11:31:36.210Z,32.35
2022-07-31T11:32:38.947Z,32.33
2022-07-31T11:33:43.256Z,32.03
2022-07-31T11:36:13.015Z,31.36
2022-07-31T11:38:29.100Z,31.73
2022-07-31T11:41:46.490Z,32.76
2022-07-31T11:43:00.010Z,31.76
2022-07-31T11:43:55.027Z,31.82
2022-07-31T11:45:08.348Z,31.72
2022-07-31T11:46:09.835Z,32.10
2022-07-31T11:48:09.930Z,32.61
2022-07-31T11:48:19.724Z,32.63
2022-07-31T11:49:39.131Z,32.10
2022-07-31T11:50:28.689Z,32.79
2022-07-31T11:51:31.368Z,32.56
2022-07-31T11:52:37.088Z,32.59
2022-07-31T11:53:39.317Z,32.51
2022-07-31T11:54:42.026Z,32.46
2022-07-31T11:55:55.446Z,32.56
2022-07-31T11:59:45.860Z,32.90
2022-07-31T12:00:26.252Z,32.81
2022-07-31T12:01:27.754Z,32.79
2022-07-31T12:02:30.491Z,32.68
2022-07-31T12:03:35.451Z,32.14
2022-07-31T12:04:38.992Z,31.98
2022-07-31T12:05:48.747Z,31.63
2022-07-31T12:06:56.119Z,32.26
2022-07-31T12:07:58.978Z,32.50
2022-07-31T12:09:03.701Z,32.13
2022-07-31T12:11:19.998Z,32.96
2022-07-31T12:12:22.706Z,32.82
2022-07-31T12:13:28.012Z,32.14
2022-07-31T12:14:38.045Z,31.71
2022-07-31T12:15:40.776Z,32.07
2022-07-31T12:16:43.534Z,31.46
2022-07-31T12:17:46.973Z,32.29
2022-07-31T12:18:52.022Z,31.95
2022-07-31T12:21:08.112Z,32.32
2022-07-31T12:23:41.774Z,32.04
2022-07-31T12:24:45.020Z,32.24
2022-07-31T12:25:50.391Z,31.82
2022-07-31T12:26:54.902Z,32.03
2022-07-31T12:27:57.612Z,31.85
2022-07-31T12:29:11.329Z,31.42
2022-07-31T12:30:17.547Z,31.27
2022-07-31T12:31:22.505Z,30.69
2022-07-31T12:32:27.619Z,31.04
2022-07-31T12:35:03.536Z,31.88
2022-07-31T12:36:14.614Z,31.79
2022-07-31T12:37:18.745Z,31.40
2022-07-31T12:38:48.511Z,31.32
2022-07-31T12:40:46.908Z,31.59
2022-07-31T12:41:51.577Z,31.93
2022-07-31T12:42:56.202Z,31.96
2022-07-31T12:44:22.414Z,31.94
2022-07-31T12:45:30.633Z,32.24
2022-07-31T12:46:36.372Z,31.65
2022-07-31T12:47:41.238Z,31.08
2022-07-31T12:48:46.361Z,31.35
2022-07-31T12:49:50.447Z,31.56
2022-07-31T12:50:55.665Z,31.39
2022-07-31T12:51:59.630Z,31.57
2022-07-31T12:53:03.697Z,31.96
2022-07-31T12:54:06.585Z,32.35
2022-07-31T12:55:09.387Z,32.28
2022-07-31T12:56:13.926Z,32.20
2022-07-31T12:57:16.595Z,32.09
2022-07-31T12:58:19.265Z,32.44
2022-07-31T12:59:21.948Z,32.75
2022-07-31T13:00:26.244Z,32.49
2022-07-31T13:01:29.349Z,32.42
2022-07-31T13:02:32.278Z,31.90
2022-07-31T13:03:39.035Z,31.82
2022-07-31T13:04:39.800Z,32.28
2022-07-31T13:05:42.622Z,32.42
2022-07-31T13:06:45.874Z,32.66
2022-07-31T13:07:48.855Z,32.51
2022-07-31T13:08:51.638Z,32.88
2022-07-31T13:10:20.900Z,32.55
2022-07-31T13:10:59.004Z,31.96
2022-07-31T13:12:03.622Z,32.23
2022-07-31T13:13:06.318Z,32.81
2022-07-31T13:14:08.983Z,32.43
2022-07-31T13:15:11.657Z,32.36
2022-07-31T13:16:15.523Z,32.22
2022-07-31T13:17:18.605Z,32.57
2022-07-31T13:18:22.247Z,32.45
2022-07-31T13:19:25.450Z,32.06
2022-07-31T13:20:30.350Z,32.06
2022-07-31T13:21:42.494Z,32.05
2022-07-31T13:22:39.046Z,31.51
2022-07-31T13:23:41.947Z,31.86
2022-07-31T13:24:44.615Z,32.04
2022-07-31T13:25:47.389Z,32.56
2022-07-31T13:26:50.169Z,32.50
2022-07-31T13:27:52.982Z,32.06
2022-07-31T13:28:55.694Z,32.30
2022-07-31T13:29:58.469Z,32.09
2022-07-31T13:31:01.724Z,32.15
2022-07-31T13:32:05.206Z,31.69
2022-07-31T13:33:07.905Z,30.77
2022-07-31T13:34:10.797Z,30.72
2022-07-31T13:36:24.270Z,30.18
2022-07-31T13:38:37.760Z,29.58
2022-07-31T13:41:02.456Z,29.26
2022-07-31T13:42:05.382Z,29.25
2022-07-31T13:43:08.081Z,29.11
2022-07-31T13:44:10.844Z,29.16
2022-07-31T13:45:13.611Z,29.14
2022-07-31T13:46:18.127Z,28.87
2022-07-31T13:47:21.030Z,28.91
2022-07-31T13:48:23.721Z,29.02
2022-07-31T13:49:26.458Z,28.76
2022-07-31T13:50:31.072Z,28.21
2022-07-31T13:51:34.164Z,28.28
2022-07-31T13:52:37.058Z,28.17
2022-07-31T13:53:39.960Z,28.50
2022-07-31T13:54:42.632Z,28.29
2022-07-31T13:55:49.962Z,28.40
2022-07-31T13:56:50.296Z,28.35
2022-07-31T13:57:53.329Z,28.23
2022-07-31T13:58:57.859Z,27.94
2022-07-31T14:00:00.542Z,28.28
2022-07-31T14:01:04.709Z,28.13
2022-07-31T14:02:07.871Z,27.70
2022-07-31T14:03:10.754Z,27.69
2022-07-31T14:04:19.188Z,28.13
2022-07-31T14:05:18.466Z,28.04
2022-07-31T14:06:23.825Z,28.23
2022-07-31T14:07:45.020Z,27.92
2022-07-31T14:08:49.617Z,27.93
2022-07-31T14:09:35.843Z,27.99
2022-07-31T14:11:49.452Z,28.26
2022-07-31T14:12:53.181Z,28.57
2022-07-31T14:14:01.828Z,28.04
2022-07-31T14:15:06.169Z,27.78
2022-07-31T14:16:09.210Z,27.90
2022-07-31T14:17:11.779Z,28.24
2022-07-31T14:18:14.894Z,27.63
2022-07-31T14:19:17.745Z,27.51
2022-07-31T14:20:21.941Z,27.61
2022-07-31T14:21:25.866Z,27.91
2022-07-31T14:22:29.196Z,28.08
2022-07-31T14:23:34.413Z,28.37
2022-07-31T14:24:36.495Z,28.42
2022-07-31T14:25:39.414Z,28.26
2022-07-31T14:26:42.849Z,27.97
2022-07-31T14:27:45.560Z,28.06
2022-07-31T14:28:48.237Z,27.85
2022-07-31T14:29:50.921Z,27.64
2022-07-31T14:30:54.005Z,27.65
2022-07-31T14:31:56.675Z,27.55
2022-07-31T14:33:00.271Z,27.82
2022-07-31T14:34:02.957Z,27.83
2022-07-31T14:35:08.574Z,27.58
2022-07-31T14:36:13.511Z,27.95
2022-07-31T14:37:16.389Z,28.08
2022-07-31T14:38:27.061Z,28.04
2022-07-31T14:39:24.023Z,28.30
2022-07-31T14:40:27.319Z,28.35
2022-07-31T14:41:30.819Z,28.55
2022-07-31T14:42:33.988Z,28.80